ΕΜΥ, Εθνική Μετεωρολογική Υπηρεσία - Δελτία Καιρού, Προγνώσεις

ΑΕΡΟΝΑΥΤΙΛΙΑ

GREEK AIRPORTS CODES

TAF LGML 190700Z 1909/1918 24012KT 9999 FEW020 PROB30 TEMPO 1915/1918 5000 RA FEW018TCU BKN040=

EUROPEAN AIRPORTS CODES

LFPO 190930Z 28013KT 9999 BKN019 BKN040 11/06 Q1018 NOSIG=